Time;durP1;ratioP1;P1;durP2;ratioP2;P2;SDS_P1;SDS_P2;PMS_P1;PMS_P2;Temp;Humidity;BMP_temperature;BMP_pressure;BME280_temperature;BME280_humidity;BME280_pressure;Samples;Min_cycle;Max_cycle;Signal;HPM_P1;HPM_P2
2022/02/01 00:00:15;;;;;;;25.17;5.90;;;2.60;99.90;;;;;;5138850;27;20433;-63
2022/02/01 00:02:51;;;;;;;25.33;6.43;;;2.40;99.90;;;;;;5141009;27;20454;-63
2022/02/01 00:05:25;;;;;;;30.23;6.67;;;2.50;99.90;;;;;;5140886;27;20542;-62
2022/02/01 00:08:05;;;;;;;26.57;5.87;;;2.40;99.90;;;;;;5138558;27;20998;-63
2022/02/01 00:10:44;;;;;;;13.17;4.40;;;2.30;99.90;;;;;;5139229;27;20549;-63
2022/02/01 00:13:23;;;;;;;21.33;4.90;;;2.30;99.90;;;;;;5139173;27;20500;-63
2022/02/01 00:19:01;;;;;;;17.30;5.80;;;2.20;99.90;;;;;;5139683;27;20436;-63
2022/02/01 00:35:31;;;;;;;24.47;5.50;;;2.10;99.90;;;;;;5139005;27;20480;-62
2022/02/01 00:38:02;;;;;;;23.47;7.30;;;2.10;99.90;;;;;;5139822;27;20615;-62
2022/02/01 00:40:29;;;;;;;16.40;5.53;;;2.10;99.90;;;;;;5138175;27;20462;-63
2022/02/01 00:42:56;;;;;;;20.60;5.90;;;2.10;99.90;;;;;;5139391;27;20969;-62
2022/02/01 00:45:23;;;;;;;23.87;6.20;;;2.20;99.90;;;;;;5139958;27;20907;-63
2022/02/01 00:47:53;;;;;;;29.60;6.70;;;2.10;99.90;;;;;;5139939;27;20421;-63
2022/02/01 00:50:24;;;;;;;23.77;5.80;;;2.20;99.90;;;;;;5141256;27;20466;-63
2022/02/01 00:52:51;;;;;;;16.93;5.10;;;2.20;99.90;;;;;;5141267;27;20512;-63
2022/02/01 00:55:21;;;;;;;19.93;5.50;;;2.20;99.90;;;;;;5140709;27;20458;-63
2022/02/01 00:57:49;;;;;;;22.23;6.50;;;2.30;99.90;;;;;;5140886;27;20939;-63
2022/02/01 01:00:19;;;;;;;27.37;5.83;;;2.30;99.90;;;;;;5140768;27;20492;-62
2022/02/01 01:02:52;;;;;;;23.17;5.80;;;2.30;99.90;;;;;;5140609;27;20709;-63
2022/02/01 01:05:19;;;;;;;19.30;5.90;;;2.20;99.90;;;;;;5140853;27;20462;-63
2022/02/01 01:07:50;;;;;;;21.03;5.53;;;2.20;99.90;;;;;;5140407;27;20429;-63
2022/02/01 01:10:17;;;;;;;19.03;5.70;;;2.20;99.90;;;;;;5140738;27;20729;-62
2022/02/01 01:12:54;;;;;;;22.77;6.50;;;2.10;99.90;;;;;;5140873;27;20523;-63
2022/02/01 01:15:25;;;;;;;24.23;6.03;;;2.20;99.90;;;;;;5140817;27;20459;-63
2022/02/01 01:18:29;;;;;;;19.53;6.07;;;2.20;99.90;;;;;;5141000;27;20899;-63
2022/02/01 01:46:00;;;;;;;21.03;5.30;;;2.40;99.90;;;;;;5119440;28;20450;-60
2022/02/01 01:53:58;;;;;;;13.70;5.47;;;2.20;99.90;;;;;;5119119;28;20405;-60
2022/02/01 01:56:27;;;;;;;13.80;4.50;;;2.20;99.90;;;;;;5120042;28;20459;-61
2022/02/01 01:58:54;;;;;;;15.23;4.00;;;2.10;99.90;;;;;;5119321;28;20544;-62
2022/02/01 02:01:21;;;;;;;10.80;5.10;;;2.10;99.90;;;;;;5119542;28;20459;-62
2022/02/01 02:03:52;;;;;;;13.10;5.00;;;2.10;99.90;;;;;;5119185;28;20456;-62
2022/02/01 02:06:19;;;;;;;17.77;6.07;;;2.10;99.90;;;;;;5118741;28;20433;-59
2022/02/01 02:08:51;;;;;;;14.73;5.30;;;2.20;99.90;;;;;;5137516;27;20508;-62
2022/02/01 02:11:26;;;;;;;14.10;5.57;;;2.10;99.90;;;;;;5138992;27;20550;-62
2022/02/01 02:16:41;;;;;;;18.33;6.40;;;2.10;99.90;;;;;;5138803;27;20438;-62
2022/02/01 02:19:09;;;;;;;19.57;7.00;;;2.20;99.90;;;;;;5138477;27;20490;-62
2022/02/01 02:21:41;;;;;;;15.03;6.67;;;2.10;99.90;;;;;;5139176;27;20459;-62
2022/02/01 02:24:09;;;;;;;14.43;7.30;;;2.20;99.90;;;;;;5139433;27;20465;-62
2022/02/01 02:26:38;;;;;;;18.73;6.90;;;2.20;99.90;;;;;;5139413;27;20490;-62
2022/02/01 02:29:05;;;;;;;20.17;7.10;;;2.20;99.90;;;;;;5138888;27;20433;-63
2022/02/01 02:31:33;;;;;;;23.43;7.30;;;2.20;99.90;;;;;;5139196;27;20879;-62
2022/02/01 02:34:05;;;;;;;18.00;6.50;;;2.30;99.90;;;;;;5139250;27;20462;-63
2022/02/01 02:36:35;;;;;;;15.00;7.00;;;2.30;99.90;;;;;;5139051;27;20501;-62
2022/02/01 02:39:09;;;;;;;15.00;6.60;;;2.40;99.90;;;;;;5138646;27;20461;-62
2022/02/01 02:41:48;;;;;;;17.57;6.30;;;2.40;99.90;;;;;;5138987;27;20461;-63
2022/02/01 02:47:00;;;;;;;16.50;5.90;;;2.40;99.90;;;;;;5139156;27;20429;-62
2022/02/01 02:49:27;;;;;;;20.77;6.53;;;2.40;99.90;;;;;;5138618;27;20430;-62
2022/02/01 02:51:54;;;;;;;18.00;6.70;;;2.40;99.90;;;;;;5138798;27;20437;-63
2022/02/01 02:54:24;;;;;;;16.23;5.47;;;2.40;99.90;;;;;;5138796;27;20511;-63
2022/02/01 02:56:53;;;;;;;16.47;7.40;;;2.40;99.90;;;;;;5138791;27;20458;-61
2022/02/01 02:59:25;;;;;;;18.13;7.30;;;2.50;99.90;;;;;;5138540;27;20486;-61
2022/02/01 03:01:52;;;;;;;17.60;6.27;;;2.40;99.90;;;;;;5138576;27;20779;-63
2022/02/01 03:04:23;;;;;;;14.60;7.00;;;2.40;99.90;;;;;;5138879;27;20463;-63
2022/02/01 03:06:51;;;;;;;16.03;5.33;;;2.40;99.90;;;;;;5138829;27;20450;-62
2022/02/01 03:09:20;;;;;;;11.80;4.60;;;2.40;99.90;;;;;;5138502;27;20549;-62
2022/02/01 03:11:52;;;;;;;17.50;5.17;;;2.40;99.90;;;;;;5139340;27;20458;-62
2022/02/01 03:14:25;;;;;;;13.60;5.03;;;2.40;99.90;;;;;;5138750;27;20454;-63
2022/02/01 03:17:00;;;;;;;16.33;4.63;;;2.30;99.90;;;;;;5138126;27;20506;-63
2022/02/01 03:22:11;;;;;;;21.03;5.47;;;2.30;99.90;;;;;;5138805;27;20575;-62
2022/02/01 03:24:38;;;;;;;20.10;5.33;;;2.30;99.90;;;;;;5138542;27;20684;-63
2022/02/01 03:27:07;;;;;;;19.80;5.83;;;2.40;99.90;;;;;;5137948;27;20453;-63
2022/02/01 03:29:35;;;;;;;16.13;5.80;;;2.40;99.90;;;;;;5138396;27;20808;-63
2022/02/01 03:32:02;;;;;;;17.10;6.20;;;2.40;99.90;;;;;;5138315;27;20538;-63
2022/02/01 03:34:29;;;;;;;18.00;6.10;;;2.40;99.90;;;;;;5139118;27;20466;-63
2022/02/01 03:36:56;;;;;;;19.33;7.17;;;2.50;99.90;;;;;;5139397;28;20459;-63
2022/02/01 03:39:23;;;;;;;15.00;5.83;;;2.40;99.90;;;;;;5138561;28;20552;-63
2022/02/01 03:41:52;;;;;;;20.93;6.83;;;2.40;99.90;;;;;;5138669;28;20536;-63
2022/02/01 03:44:20;;;;;;;14.00;6.20;;;2.40;99.90;;;;;;5139494;28;20458;-63
2022/02/01 03:46:59;;;;;;;15.97;5.40;;;2.40;99.90;;;;;;5138839;28;20440;-63
2022/02/01 03:49:26;;;;;;;15.57;5.73;;;2.40;99.90;;;;;;5139480;28;20809;-63
2022/02/01 03:51:53;;;;;;;23.07;5.60;;;2.40;99.90;;;;;;5139113;28;20853;-63
2022/02/01 03:54:19;;;;;;;16.53;5.10;;;2.40;99.90;;;;;;5139287;28;20462;-63
2022/02/01 03:56:47;;;;;;;16.50;4.67;;;2.40;99.90;;;;;;5139202;28;20515;-63
2022/02/01 03:59:14;;;;;;;15.30;4.93;;;2.40;99.90;;;;;;5138978;28;20490;-63
2022/02/01 04:01:42;;;;;;;14.40;5.40;;;2.40;99.90;;;;;;5138996;28;20458;-63
2022/02/01 04:04:10;;;;;;;16.40;5.40;;;2.30;99.90;;;;;;5138993;28;20516;-62
2022/02/01 04:06:37;;;;;;;20.70;4.50;;;2.30;99.90;;;;;;5139355;28;20463;-62
2022/02/01 04:09:04;;;;;;;16.80;5.27;;;2.40;99.90;;;;;;5138463;28;20455;-63
2022/02/01 04:11:31;;;;;;;10.73;4.33;;;2.30;99.90;;;;;;5138013;28;20486;-63
2022/02/01 04:13:58;;;;;;;17.63;4.70;;;2.30;99.90;;;;;;5138496;28;20466;-63
2022/02/01 04:16:25;;;;;;;14.37;4.63;;;2.30;99.90;;;;;;5138340;28;20462;-63
2022/02/01 04:18:54;;;;;;;22.80;5.07;;;2.30;99.90;;;;;;5138983;28;20502;-63
2022/02/01 04:21:21;;;;;;;12.03;3.97;;;2.30;99.90;;;;;;5138667;28;20505;-63
2022/02/01 04:23:48;;;;;;;13.67;3.97;;;2.20;99.90;;;;;;5138528;28;20462;-63
2022/02/01 04:26:15;;;;;;;16.57;4.40;;;2.30;99.90;;;;;;5138545;28;20460;-63
2022/02/01 04:28:42;;;;;;;19.07;5.57;;;2.20;99.90;;;;;;5138441;28;20489;-63
2022/02/01 04:31:09;;;;;;;17.03;4.67;;;2.20;99.90;;;;;;5138225;28;20458;-63
2022/02/01 04:33:36;;;;;;;13.93;4.30;;;2.20;99.90;;;;;;5138411;28;20462;-63
2022/02/01 04:36:04;;;;;;;18.40;4.80;;;2.20;99.90;;;;;;5138385;28;20856;-63
2022/02/01 04:38:32;;;;;;;19.03;4.50;;;2.20;99.90;;;;;;5138921;28;20458;-63
2022/02/01 04:40:59;;;;;;;16.20;4.33;;;2.20;99.90;;;;;;5139136;28;20498;-63
2022/02/01 04:43:30;;;;;;;21.63;4.60;;;2.20;99.90;;;;;;5141471;27;20469;-63
2022/02/01 04:46:00;;;;;;;18.53;5.40;;;2.20;99.90;;;;;;5142589;27;20447;-63
2022/02/01 04:48:27;;;;;;;16.87;4.57;;;2.20;99.90;;;;;;5142710;27;20498;-63
2022/02/01 04:50:54;;;;;;;15.43;4.43;;;2.20;99.90;;;;;;5142520;27;20466;-63
2022/02/01 04:53:23;;;;;;;9.77;4.63;;;2.20;99.90;;;;;;5142275;27;20778;-63
2022/02/01 04:55:54;;;;;;;16.17;5.03;;;2.20;99.90;;;;;;5142790;27;20458;-63
2022/02/01 04:58:22;;;;;;;11.93;5.13;;;2.20;99.90;;;;;;5142508;27;20757;-63
2022/02/01 05:00:49;;;;;;;16.23;4.77;;;2.20;99.90;;;;;;5141317;27;20482;-63
2022/02/01 05:03:16;;;;;;;22.30;4.50;;;2.10;99.90;;;;;;5140251;27;20458;-63
2022/02/01 05:05:44;;;;;;;17.73;4.97;;;2.10;99.90;;;;;;5139501;27;20459;-63
2022/02/01 05:08:13;;;;;;;18.37;5.43;;;2.20;99.90;;;;;;5141665;27;20466;-63
2022/02/01 05:10:42;;;;;;;16.83;5.77;;;2.20;99.90;;;;;;5139961;27;20799;-63
2022/02/01 05:13:55;;;;;;;12.30;4.70;;;2.30;99.90;;;;;;5137310;27;20933;-63
2022/02/01 05:16:12;;;;;;;15.30;4.63;;;2.30;99.90;;;;;;5139927;27;20410;-63
2022/02/01 05:18:45;;;;;;;22.13;4.63;;;2.30;99.90;;;;;;5139670;27;20433;-63
2022/02/01 05:21:19;;;;;;;16.60;4.40;;;2.30;99.90;;;;;;5132558;27;20445;-63
2022/02/01 05:23:46;;;;;;;14.23;5.00;;;2.40;99.90;;;;;;5138186;27;20455;-63
2022/02/01 05:26:15;;;;;;;16.03;6.73;;;2.30;99.90;;;;;;5140132;27;20826;-63
2022/02/01 05:28:42;;;;;;;20.20;4.93;;;2.40;99.90;;;;;;5139504;27;20468;-63
2022/02/01 05:31:10;;;;;;;18.27;4.70;;;2.40;99.90;;;;;;5137319;27;20875;-63
2022/02/01 05:33:37;;;;;;;10.70;4.37;;;2.40;99.90;;;;;;5139943;27;20500;-63
2022/02/01 05:36:06;;;;;;;15.87;4.23;;;2.40;99.90;;;;;;5138970;27;20421;-63
2022/02/01 05:38:34;;;;;;;13.63;4.73;;;2.40;99.90;;;;;;5134858;27;20467;-63
2022/02/01 05:41:01;;;;;;;17.00;5.70;;;2.40;99.90;;;;;;5135822;27;20494;-63
2022/02/01 05:43:29;;;;;;;16.00;5.30;;;2.50;99.90;;;;;;5138119;27;20924;-63
2022/02/01 05:45:58;;;;;;;24.07;5.90;;;2.50;99.90;;;;;;5138959;27;20869;-63
2022/02/01 05:48:26;;;;;;;19.43;5.90;;;2.50;99.90;;;;;;5139786;27;20498;-63
2022/02/01 05:50:54;;;;;;;18.43;5.50;;;2.50;99.90;;;;;;5138449;27;20421;-63
2022/02/01 05:53:22;;;;;;;16.37;6.27;;;2.40;99.90;;;;;;5133609;27;20462;-63
2022/02/01 05:55:50;;;;;;;18.53;5.83;;;2.40;99.90;;;;;;5137220;27;20428;-63
2022/02/01 05:58:17;;;;;;;15.60;5.37;;;2.40;99.90;;;;;;5135120;27;20455;-63
2022/02/01 06:00:46;;;;;;;24.07;5.90;;;2.30;99.90;;;;;;5134317;27;20969;-63
2022/02/01 06:03:16;;;;;;;17.87;5.67;;;2.30;99.90;;;;;;5137257;27;20455;-63
2022/02/01 06:05:43;;;;;;;17.00;6.40;;;2.30;99.90;;;;;;5138270;27;20508;-63
2022/02/01 06:08:11;;;;;;;16.20;5.47;;;2.30;99.90;;;;;;5138338;27;20505;-63
2022/02/01 06:10:39;;;;;;;19.60;5.40;;;2.30;99.90;;;;;;5136864;27;20418;-63
2022/02/01 06:13:06;;;;;;;13.90;5.33;;;2.40;99.90;;;;;;5137963;27;20422;-63
2022/02/01 06:15:34;;;;;;;22.00;6.80;;;2.40;99.90;;;;;;5138408;27;21066;-63
2022/02/01 06:18:06;;;;;;;15.50;6.93;;;2.40;99.90;;;;;;5137968;27;20883;-63
2022/02/01 06:20:33;;;;;;;18.47;6.33;;;2.40;99.90;;;;;;5137244;27;20486;-63
2022/02/01 06:23:02;;;;;;;14.00;7.30;;;2.40;99.90;;;;;;5137883;27;20429;-62
2022/02/01 06:25:47;;;;;;;16.50;7.07;;;2.50;99.90;;;;;;5134941;27;20425;-62
2022/02/01 06:28:15;;;;;;;17.53;7.73;;;2.50;99.90;;;;;;5131193;27;20462;-63
2022/02/01 06:30:42;;;;;;;15.73;6.23;;;2.50;99.90;;;;;;5137221;27;20480;-63
2022/02/01 06:33:15;;;;;;;22.90;9.67;;;2.50;99.90;;;;;;5138552;27;20461;-63
2022/02/01 06:35:43;;;;;;;18.03;9.10;;;2.60;99.90;;;;;;5135645;27;20450;-63
2022/02/01 06:38:13;;;;;;;15.27;6.13;;;2.50;99.90;;;;;;5138212;27;20820;-63
2022/02/01 06:40:43;;;;;;;15.60;6.50;;;2.50;99.90;;;;;;5137967;27;20524;-63
2022/02/01 06:43:11;;;;;;;14.63;7.13;;;2.60;99.90;;;;;;5135479;27;20524;-62
2022/02/01 06:45:38;;;;;;;11.43;5.50;;;2.60;99.90;;;;;;5130451;27;20454;-62
2022/02/01 06:48:05;;;;;;;18.10;6.30;;;2.60;99.90;;;;;;5134451;27;20909;-63
2022/02/01 06:50:34;;;;;;;10.70;5.00;;;2.60;99.90;;;;;;5135530;27;20911;-62
2022/02/01 06:53:03;;;;;;;11.37;5.40;;;2.60;99.90;;;;;;5136253;27;20451;-62
2022/02/01 06:55:43;;;;;;;11.53;6.47;;;2.60;99.90;;;;;;5136749;27;21011;-63
2022/02/01 06:58:12;;;;;;;14.27;7.13;;;2.60;99.90;;;;;;5137780;27;20457;-62
2022/02/01 07:00:41;;;;;;;19.20;6.03;;;2.70;99.90;;;;;;5133853;27;20510;-62
2022/02/01 07:03:09;;;;;;;13.93;5.53;;;2.70;99.90;;;;;;5125357;27;20537;-63
2022/02/01 07:05:38;;;;;;;18.80;5.90;;;2.60;99.90;;;;;;5119030;27;20458;-63
2022/02/01 07:08:05;;;;;;;14.23;6.10;;;2.60;99.90;;;;;;5132732;27;20481;-62
2022/02/01 07:10:32;;;;;;;12.20;5.40;;;2.60;99.90;;;;;;5129744;27;20522;-62
2022/02/01 07:13:04;;;;;;;15.83;5.30;;;2.70;99.90;;;;;;5138273;27;20910;-62
2022/02/01 07:15:31;;;;;;;17.60;5.40;;;2.60;99.90;;;;;;5138336;27;20447;-63
2022/02/01 07:17:58;;;;;;;16.23;5.50;;;2.60;99.90;;;;;;5136137;27;20441;-63
2022/02/01 07:20:27;;;;;;;9.83;4.70;;;2.70;99.90;;;;;;5135485;27;20482;-63
2022/02/01 07:22:58;;;;;;;12.23;4.50;;;2.60;99.90;;;;;;5135859;27;20462;-63
2022/02/01 07:25:30;;;;;;;13.07;5.77;;;2.70;99.90;;;;;;5137707;27;20455;-63
2022/02/01 07:28:01;;;;;;;15.53;5.10;;;2.70;99.90;;;;;;5138670;27;20469;-63
2022/02/01 07:30:28;;;;;;;17.77;5.80;;;2.70;99.90;;;;;;5138832;27;20433;-62
2022/02/01 07:33:01;;;;;;;15.97;7.10;;;2.70;99.90;;;;;;5136069;27;20512;-63
2022/02/01 07:35:30;;;;;;;16.10;5.70;;;2.70;99.90;;;;;;5130940;27;20541;-63
2022/02/01 07:38:01;;;;;;;16.80;6.70;;;2.80;99.90;;;;;;5132185;28;20545;-63
2022/02/01 07:40:28;;;;;;;13.30;6.47;;;2.80;99.90;;;;;;5137989;28;20561;-63
2022/02/01 07:42:55;;;;;;;18.63;8.20;;;2.80;99.90;;;;;;5137131;28;20485;-63
2022/02/01 07:45:28;;;;;;;18.43;6.43;;;2.80;99.90;;;;;;5133683;28;20507;-63
2022/02/01 07:47:56;;;;;;;26.30;6.70;;;2.80;99.90;;;;;;5137651;28;20812;-60
2022/02/01 07:50:23;;;;;;;18.50;5.80;;;2.90;99.90;;;;;;5138135;28;20433;-64
2022/02/01 07:52:52;;;;;;;12.80;5.80;;;2.90;99.90;;;;;;5138304;28;20437;-63
2022/02/01 07:55:21;;;;;;;17.17;7.30;;;2.90;99.90;;;;;;5137932;28;20548;-63
2022/02/01 07:57:48;;;;;;;22.07;7.80;;;2.90;99.90;;;;;;5133361;28;20482;-62
2022/02/01 08:00:15;;;;;;;15.80;5.80;;;3.00;99.90;;;;;;5123086;28;20568;-63
2022/02/01 08:02:43;;;;;;;19.20;7.97;;;3.00;99.90;;;;;;5133674;28;20471;-61
2022/02/01 08:05:13;;;;;;;20.80;7.87;;;3.00;99.90;;;;;;5137424;28;20425;-63
2022/02/01 08:07:40;;;;;;;21.83;7.37;;;3.10;99.90;;;;;;5138261;28;20791;-63
2022/02/01 08:10:12;;;;;;;15.77;8.50;;;3.10;99.90;;;;;;5138094;28;20458;-62
2022/02/01 08:18:35;;;;;;;17.30;8.70;;;3.10;99.90;;;;;;5117075;28;20402;-58
2022/02/01 08:21:06;;;;;;;15.87;8.40;;;3.10;99.90;;;;;;5121366;28;20973;-59
2022/02/01 08:23:34;;;;;;;15.77;7.43;;;3.10;99.90;;;;;;5123836;27;20562;-61
2022/02/01 08:26:01;;;;;;;13.17;8.83;;;3.10;99.90;;;;;;5131130;27;20458;-58
2022/02/01 08:28:30;;;;;;;15.13;8.43;;;3.10;99.90;;;;;;5130312;27;20523;-59
2022/02/01 08:30:57;;;;;;;18.73;8.90;;;3.10;99.90;;;;;;5138722;27;20422;-57
2022/02/01 08:33:28;;;;;;;15.67;8.73;;;3.10;99.90;;;;;;5140840;27;20433;-59
2022/02/01 08:35:55;;;;;;;18.37;10.07;;;3.10;99.90;;;;;;5141323;27;20508;-60
2022/02/01 08:38:22;;;;;;;13.70;8.27;;;3.20;99.90;;;;;;5141514;27;20573;-60
2022/02/01 08:40:52;;;;;;;12.57;7.77;;;3.20;99.90;;;;;;5141411;27;20854;-62
2022/02/01 08:43:20;;;;;;;13.20;8.87;;;3.20;99.90;;;;;;5131709;27;20536;-61
2022/02/01 08:45:50;;;;;;;15.33;8.50;;;3.20;99.90;;;;;;5128254;27;20483;-62
2022/02/01 08:48:20;;;;;;;13.20;9.03;;;3.20;99.90;;;;;;5126944;27;20438;-62
2022/02/01 08:50:50;;;;;;;14.67;7.80;;;3.20;99.90;;;;;;5133417;27;20500;-62
2022/02/01 08:53:22;;;;;;;13.93;7.87;;;3.30;99.90;;;;;;5130222;27;20459;-62
2022/02/01 08:58:33;;;;;;;11.73;8.20;;;3.20;99.90;;;;;;5136916;27;20461;-62
2022/02/01 09:01:04;;;;;;;12.60;7.77;;;3.30;99.90;;;;;;5136071;27;20462;-62
2022/02/01 09:03:32;;;;;;;10.33;7.53;;;3.30;99.90;;;;;;5137647;27;20466;-62
2022/02/01 09:05:59;;;;;;;9.93;6.40;;;3.30;99.90;;;;;;5129729;27;20823;-62
2022/02/01 09:08:27;;;;;;;14.47;7.17;;;3.30;99.90;;;;;;5130788;27;20739;-62
2022/02/01 09:10:54;;;;;;;14.03;7.30;;;3.40;99.90;;;;;;5135974;27;20430;-63
2022/02/01 09:13:21;;;;;;;12.60;7.30;;;3.40;99.90;;;;;;5136571;27;20853;-60
2022/02/01 09:15:48;;;;;;;9.87;6.40;;;3.30;99.90;;;;;;5139677;27;20458;-63
2022/02/01 09:18:17;;;;;;;7.20;5.50;;;3.30;99.90;;;;;;5140706;27;20891;-62
2022/02/01 09:20:45;;;;;;;8.77;6.03;;;3.30;99.90;;;;;;5134774;27;20486;-62
2022/02/01 09:23:12;;;;;;;8.37;5.83;;;3.40;99.90;;;;;;5135992;27;20451;-62
2022/02/01 09:25:39;;;;;;;5.30;4.80;;;3.50;99.90;;;;;;5130850;27;20466;-62
2022/02/01 09:28:09;;;;;;;9.40;5.17;;;3.50;99.90;;;;;;5133081;27;20462;-61
2022/02/01 09:30:38;;;;;;;8.10;5.70;;;3.50;99.90;;;;;;5133839;27;20459;-62
2022/02/01 09:33:08;;;;;;;5.70;5.13;;;3.50;99.90;;;;;;5139955;27;20454;-62
2022/02/01 09:35:36;;;;;;;7.70;5.40;;;3.50;99.90;;;;;;5138164;27;20458;-62
2022/02/01 09:38:03;;;;;;;6.20;5.60;;;3.60;99.90;;;;;;5133232;27;20494;-62
2022/02/01 09:40:42;;;;;;;5.60;5.00;;;3.50;99.90;;;;;;5139323;27;20528;-62
2022/02/01 09:43:09;;;;;;;7.90;5.83;;;3.60;99.90;;;;;;5137892;27;20799;-62
2022/02/01 09:45:37;;;;;;;6.50;5.83;;;3.60;99.90;;;;;;5140219;27;20486;-62
2022/02/01 09:48:05;;;;;;;7.77;5.80;;;3.60;99.90;;;;;;5139700;27;20462;-62
2022/02/01 09:50:33;;;;;;;8.07;7.27;;;3.70;99.90;;;;;;5131927;27;20507;-62
2022/02/01 09:53:03;;;;;;;7.60;6.10;;;3.70;99.90;;;;;;5138513;27;20463;-62
2022/02/01 09:55:36;;;;;;;7.80;7.10;;;3.60;99.90;;;;;;5139724;27;20710;-62
2022/02/01 09:58:04;;;;;;;7.97;7.17;;;3.70;99.90;;;;;;5140167;27;20433;-62
2022/02/01 10:00:34;;;;;;;7.67;6.77;;;3.70;99.90;;;;;;5138145;27;20494;-62
2022/02/01 10:03:03;;;;;;;7.07;6.37;;;3.70;99.90;;;;;;5127706;27;20467;-62
2022/02/01 10:05:35;;;;;;;8.03;7.27;;;3.80;99.90;;;;;;5131060;27;20759;-62
2022/02/01 10:08:04;;;;;;;8.20;7.10;;;3.80;99.90;;;;;;5121929;27;20490;-63
2022/02/01 10:10:37;;;;;;;8.27;7.40;;;3.80;99.90;;;;;;5135129;27;20477;-62
2022/02/01 10:13:12;;;;;;;8.23;7.43;;;3.90;99.90;;;;;;5139850;27;20437;-62
2022/02/01 10:15:40;;;;;;;8.13;7.03;;;3.90;99.90;;;;;;5139728;27;20474;-58
2022/02/01 10:18:09;;;;;;;8.37;7.53;;;4.00;99.90;;;;;;5139408;27;20466;-58
2022/02/01 10:20:42;;;;;;;8.07;7.27;;;4.00;99.90;;;;;;5139512;27;20554;-61
2022/02/01 10:23:25;;;;;;;9.80;8.07;;;4.00;99.90;;;;;;5136582;27;20462;-58
2022/02/01 10:26:07;;;;;;;10.60;7.50;;;4.00;99.90;;;;;;5129368;27;20467;-58
2022/02/01 10:31:32;;;;;;;8.97;7.10;;;4.00;99.90;;;;;;5137136;27;20405;-59
2022/02/01 10:34:25;;;;;;;7.87;7.07;;;4.00;99.90;;;;;;5134142;27;20463;-62
2022/02/01 10:36:55;;;;;;;11.30;8.20;;;4.00;99.90;;;;;;5136085;27;20455;-62
2022/02/01 10:39:26;;;;;;;9.67;8.43;;;4.00;99.90;;;;;;5139286;27;20489;-62
2022/02/01 10:42:01;;;;;;;11.50;8.27;;;4.00;99.90;;;;;;5138717;27;20569;-58
2022/02/01 10:44:46;;;;;;;13.40;8.73;;;4.00;99.90;;;;;;5139064;27;20462;-59
2022/02/01 10:47:16;;;;;;;10.00;9.07;;;4.10;99.90;;;;;;5137888;27;20429;-59
2022/02/01 10:49:43;;;;;;;10.00;8.23;;;4.10;99.90;;;;;;5118417;28;20467;-60
2022/02/01 10:52:12;;;;;;;8.87;8.07;;;4.10;99.90;;;;;;5117928;28;20489;-60
2022/02/01 10:54:42;;;;;;;8.60;7.80;;;4.10;99.90;;;;;;5117436;28;20885;-61
2022/02/01 10:57:11;;;;;;;11.83;7.97;;;4.10;99.90;;;;;;5127053;27;20474;-60
2022/02/01 10:59:41;;;;;;;9.37;8.37;;;4.10;99.90;;;;;;5138934;27;20460;-60
2022/02/01 11:02:13;;;;;;;8.87;7.97;;;4.10;99.90;;;;;;5127748;27;20462;-60
2022/02/01 11:04:39;;;;;;;10.50;8.60;;;4.20;99.90;;;;;;5128115;27;20485;-59
2022/02/01 11:07:08;;;;;;;11.00;8.20;;;4.20;99.90;;;;;;5129826;27;20841;-63
2022/02/01 11:09:39;;;;;;;9.50;8.03;;;4.20;99.90;;;;;;5130723;27;20470;-61
2022/02/01 11:12:15;;;;;;;10.07;9.00;;;4.20;99.90;;;;;;5138165;27;20458;-61
2022/02/01 11:14:45;;;;;;;12.63;9.20;;;4.20;99.90;;;;;;5138733;27;20497;-60
2022/02/01 11:17:15;;;;;;;9.57;8.33;;;4.30;99.90;;;;;;5137643;27;20458;-62
2022/02/01 11:19:53;;;;;;;8.53;7.63;;;4.40;99.90;;;;;;5118113;28;20466;-61
2022/02/01 11:22:26;;;;;;;9.60;8.43;;;4.30;99.90;;;;;;5117580;28;20470;-59
2022/02/01 11:24:58;;;;;;;9.37;7.40;;;4.40;99.90;;;;;;5124645;27;20474;-60
2022/02/01 11:27:44;;;;;;;8.50;7.70;;;4.50;99.90;;;;;;5117997;28;20791;-60
2022/02/01 11:30:15;;;;;;;8.30;7.40;;;4.50;99.90;;;;;;5131215;27;20854;-60
2022/02/01 11:32:50;;;;;;;8.33;7.53;;;4.50;99.90;;;;;;5137287;27;20538;-60
2022/02/01 11:35:22;;;;;;;11.53;6.87;;;4.50;99.90;;;;;;5118910;27;20461;-58
2022/02/01 11:37:51;;;;;;;8.40;6.30;;;4.70;99.90;;;;;;5137309;27;20454;-61
2022/02/01 11:40:22;;;;;;;6.90;6.10;;;4.80;99.90;;;;;;5137912;28;20436;-59
2022/02/01 11:43:00;;;;;;;7.67;6.87;;;4.80;99.90;;;;;;5119100;28;20477;-61
2022/02/01 11:45:32;;;;;;;7.10;6.37;;;4.80;99.90;;;;;;5119322;28;20442;-62
2022/02/01 11:48:00;;;;;;;7.23;6.53;;;4.80;99.90;;;;;;5120921;28;20459;-61
2022/02/01 11:50:28;;;;;;;7.37;6.67;;;4.90;99.90;;;;;;5135589;28;20761;-62
2022/02/01 11:52:57;;;;;;;7.27;6.17;;;4.90;99.90;;;;;;5139084;27;20507;-62
2022/02/01 11:55:37;;;;;;;7.03;6.33;;;4.90;99.90;;;;;;5142147;27;20540;-62
2022/02/01 11:58:07;;;;;;;8.00;6.80;;;4.90;99.90;;;;;;5142477;27;20459;-62
2022/02/01 12:00:39;;;;;;;6.43;5.83;;;5.00;99.90;;;;;;5141745;27;20428;-62
2022/02/01 12:03:08;;;;;;;7.57;6.03;;;5.10;99.90;;;;;;5142742;27;20511;-62
2022/02/01 12:05:37;;;;;;;6.83;5.30;;;5.10;99.90;;;;;;5142058;27;20455;-62
2022/02/01 12:08:10;;;;;;;6.33;5.73;;;5.10;99.90;;;;;;5141063;27;20722;-61
2022/02/01 12:10:41;;;;;;;5.47;4.97;;;5.20;99.90;;;;;;5141630;27;20721;-62
2022/02/01 12:13:11;;;;;;;5.60;5.10;;;5.20;99.90;;;;;;5142511;27;20545;-62
2022/02/01 12:15:42;;;;;;;5.50;5.00;;;5.20;99.90;;;;;;5142268;27;20462;-63
2022/02/01 12:18:22;;;;;;;5.83;5.33;;;5.20;99.90;;;;;;5141958;27;20433;-62
2022/02/01 12:21:03;;;;;;;4.50;4.10;;;5.30;99.90;;;;;;5141781;27;20468;-62
2022/02/01 12:23:31;;;;;;;6.13;5.30;;;5.30;99.90;;;;;;5142542;27;20687;-62
2022/02/01 12:25:58;;;;;;;5.10;4.70;;;5.30;99.90;;;;;;5142383;27;20421;-62
2022/02/01 12:28:32;;;;;;;4.97;4.43;;;5.30;99.90;;;;;;5141946;27;20462;-62
2022/02/01 12:31:15;;;;;;;4.93;4.43;;;5.30;99.90;;;;;;5142058;27;20704;-62
2022/02/01 12:33:44;;;;;;;4.60;4.20;;;5.30;99.90;;;;;;5141810;27;20429;-62
2022/02/01 12:36:15;;;;;;;4.93;4.43;;;5.40;99.90;;;;;;5141385;27;20458;-62
2022/02/01 12:38:49;;;;;;;3.97;3.57;;;5.40;99.90;;;;;;5142139;27;20466;-60
2022/02/01 12:41:22;;;;;;;4.67;4.27;;;5.40;99.90;;;;;;5141507;27;20928;-62
2022/02/01 12:46:46;;;;;;;6.37;4.63;;;5.40;99.90;;;;;;5141109;27;20461;-62
2022/02/01 12:49:13;;;;;;;4.87;4.47;;;5.50;99.90;;;;;;5141769;27;20443;-62
2022/02/01 12:51:41;;;;;;;4.20;3.80;;;5.50;99.90;;;;;;5141609;27;20890;-62
2022/02/01 12:54:25;;;;;;;4.07;3.67;;;5.50;99.90;;;;;;5141489;27;20533;-62
2022/02/01 12:56:53;;;;;;;5.83;3.53;;;5.50;99.90;;;;;;5141678;27;20513;-62
2022/02/01 12:59:22;;;;;;;4.63;3.63;;;5.50;99.90;;;;;;5141574;27;20507;-62
2022/02/01 13:01:50;;;;;;;7.03;3.80;;;5.60;99.90;;;;;;5141587;27;20557;-62
2022/02/01 13:04:24;;;;;;;4.90;4.40;;;5.60;99.90;;;;;;5140685;27;20458;-62
2022/02/01 13:06:55;;;;;;;5.60;4.00;;;5.60;99.90;;;;;;5141080;27;20517;-62
2022/02/01 13:15:09;;;;;;;4.33;3.93;;;5.60;99.90;;;;;;5119600;28;20903;-63
2022/02/01 13:17:43;;;;;;;4.83;4.33;;;5.70;99.90;;;;;;5120619;28;20477;-62
2022/02/01 13:20:18;;;;;;;4.83;4.33;;;5.80;99.90;;;;;;5120432;28;20481;-62
2022/02/01 13:22:54;;;;;;;4.20;3.80;;;5.70;99.90;;;;;;5120105;28;20505;-62
2022/02/01 13:25:33;;;;;;;6.33;5.40;;;5.80;99.90;;;;;;5120488;28;20434;-63
2022/02/01 13:28:03;;;;;;;4.00;3.60;;;5.70;99.90;;;;;;5119809;28;20955;-62
2022/02/01 13:30:39;;;;;;;3.60;3.30;;;5.70;99.90;;;;;;5119127;28;20528;-62
2022/02/01 13:33:08;;;;;;;4.10;3.33;;;5.80;99.90;;;;;;5119442;28;20467;-62
2022/02/01 13:35:48;;;;;;;3.53;3.10;;;5.80;99.90;;;;;;5124794;27;20458;-62
2022/02/01 13:38:16;;;;;;;3.33;2.93;;;5.80;99.90;;;;;;5140067;27;20459;-62
2022/02/01 13:40:44;;;;;;;3.40;2.43;;;5.90;99.90;;;;;;5140649;27;20511;-63
2022/02/01 13:43:17;;;;;;;3.60;3.20;;;5.80;99.90;;;;;;5139942;27;20606;-62
2022/02/01 13:45:53;;;;;;;3.70;3.30;;;5.90;99.90;;;;;;5140475;27;20495;-61
2022/02/01 13:48:22;;;;;;;3.90;3.10;;;5.90;99.90;;;;;;5139768;27;20429;-62
2022/02/01 13:50:50;;;;;;;3.40;3.00;;;5.90;99.90;;;;;;5139920;27;20485;-61
2022/02/01 13:53:23;;;;;;;5.00;3.40;;;5.90;99.90;;;;;;5140777;27;20497;-61
2022/02/01 13:56:00;;;;;;;3.20;2.87;;;5.90;99.90;;;;;;5139551;27;20458;-62
2022/02/01 13:58:30;;;;;;;3.80;2.93;;;5.90;99.90;;;;;;5139317;27;20534;-57
2022/02/01 14:00:59;;;;;;;3.57;2.97;;;6.00;99.90;;;;;;5139346;27;20467;-62
2022/02/01 14:03:36;;;;;;;3.87;3.20;;;5.90;99.90;;;;;;5138850;27;20597;-59
2022/02/01 14:06:19;;;;;;;3.50;2.70;;;6.00;99.90;;;;;;5139659;27;20469;-58
2022/02/01 14:08:51;;;;;;;3.20;2.90;;;6.00;99.90;;;;;;5139300;27;20458;-59
2022/02/01 14:23:03;;;;;;;2.87;2.60;;;6.10;99.90;;;;;;5138812;27;20623;-62
2022/02/01 14:28:28;;;;;;;3.87;3.23;;;6.10;99.90;;;;;;5139308;27;20903;-59
2022/02/01 14:36:29;;;;;;;4.30;3.90;;;6.20;99.90;;;;;;5126001;27;20489;-60
2022/02/01 14:39:04;;;;;;;4.87;4.33;;;6.20;99.90;;;;;;5118664;28;20463;-61
2022/02/01 14:47:11;;;;;;;6.47;5.87;;;6.20;99.90;;;;;;5118994;27;21001;-61